sensor_id;sensor_type;location;lat;lon;timestamp;P1;durP1;ratioP1;P2;durP2;ratioP2
22144;SDS011;11238;48.730;11.566;2022-08-18T00:01:41;8.50;;;6.68;;
22144;SDS011;11238;48.730;11.566;2022-08-18T00:04:10;10.18;;;7.47;;
22144;SDS011;11238;48.730;11.566;2022-08-18T00:06:36;12.13;;;7.68;;
22144;SDS011;11238;48.730;11.566;2022-08-18T00:09:04;10.30;;;7.50;;
22144;SDS011;11238;48.730;11.566;2022-08-18T00:11:36;9.40;;;6.88;;
22144;SDS011;11238;48.730;11.566;2022-08-18T00:14:05;9.90;;;6.32;;
22144;SDS011;11238;48.730;11.566;2022-08-18T00:16:32;11.05;;;7.10;;
22144;SDS011;11238;48.730;11.566;2022-08-18T00:18:58;15.18;;;7.05;;
22144;SDS011;11238;48.730;11.566;2022-08-18T00:21:24;14.32;;;6.85;;
22144;SDS011;11238;48.730;11.566;2022-08-18T00:23:51;7.78;;;6.18;;
22144;SDS011;11238;48.730;11.566;2022-08-18T00:26:17;8.13;;;5.78;;
22144;SDS011;11238;48.730;11.566;2022-08-18T00:28:43;8.43;;;6.70;;
22144;SDS011;11238;48.730;11.566;2022-08-18T00:31:08;9.07;;;6.82;;
22144;SDS011;11238;48.730;11.566;2022-08-18T00:33:34;9.35;;;7.47;;
22144;SDS011;11238;48.730;11.566;2022-08-18T00:36:01;9.38;;;7.35;;
22144;SDS011;11238;48.730;11.566;2022-08-18T00:38:27;11.27;;;8.80;;
22144;SDS011;11238;48.730;11.566;2022-08-18T00:40:54;11.23;;;7.47;;
22144;SDS011;11238;48.730;11.566;2022-08-18T00:43:21;11.13;;;8.40;;
22144;SDS011;11238;48.730;11.566;2022-08-18T00:46:09;9.88;;;8.45;;
22144;SDS011;11238;48.730;11.566;2022-08-18T00:48:39;10.82;;;8.52;;
22144;SDS011;11238;48.730;11.566;2022-08-18T00:51:07;11.32;;;8.13;;
22144;SDS011;11238;48.730;11.566;2022-08-18T00:53:39;9.77;;;8.55;;
22144;SDS011;11238;48.730;11.566;2022-08-18T00:56:11;15.80;;;8.70;;
22144;SDS011;11238;48.730;11.566;2022-08-18T00:58:43;9.43;;;7.60;;
22144;SDS011;11238;48.730;11.566;2022-08-18T01:01:13;11.82;;;7.82;;
22144;SDS011;11238;48.730;11.566;2022-08-18T01:03:43;10.75;;;7.78;;
22144;SDS011;11238;48.730;11.566;2022-08-18T01:06:23;12.52;;;7.57;;
22144;SDS011;11238;48.730;11.566;2022-08-18T01:08:56;8.52;;;5.63;;
22144;SDS011;11238;48.730;11.566;2022-08-18T01:11:22;8.77;;;6.60;;
22144;SDS011;11238;48.730;11.566;2022-08-18T01:13:48;7.63;;;6.78;;
22144;SDS011;11238;48.730;11.566;2022-08-18T01:16:14;10.23;;;7.25;;
22144;SDS011;11238;48.730;11.566;2022-08-18T01:19:00;8.57;;;6.93;;
22144;SDS011;11238;48.730;11.566;2022-08-18T01:22:04;7.78;;;6.90;;
22144;SDS011;11238;48.730;11.566;2022-08-18T01:24:37;7.72;;;6.93;;
22144;SDS011;11238;48.730;11.566;2022-08-18T01:27:23;7.88;;;6.63;;
22144;SDS011;11238;48.730;11.566;2022-08-18T01:29:50;10.18;;;6.90;;
22144;SDS011;11238;48.730;11.566;2022-08-18T01:32:17;9.45;;;7.03;;
22144;SDS011;11238;48.730;11.566;2022-08-18T01:34:45;8.57;;;6.82;;
22144;SDS011;11238;48.730;11.566;2022-08-18T01:37:16;8.38;;;6.05;;
22144;SDS011;11238;48.730;11.566;2022-08-18T01:39:47;7.68;;;6.47;;
22144;SDS011;11238;48.730;11.566;2022-08-18T01:42:14;10.27;;;6.40;;
22144;SDS011;11238;48.730;11.566;2022-08-18T01:44:42;6.80;;;5.93;;
22144;SDS011;11238;48.730;11.566;2022-08-18T01:47:10;8.15;;;6.75;;
22144;SDS011;11238;48.730;11.566;2022-08-18T01:49:37;7.55;;;6.50;;
22144;SDS011;11238;48.730;11.566;2022-08-18T01:52:03;10.98;;;7.53;;
22144;SDS011;11238;48.730;11.566;2022-08-18T01:54:31;9.35;;;7.40;;
22144;SDS011;11238;48.730;11.566;2022-08-18T01:56:58;9.05;;;7.65;;
22144;SDS011;11238;48.730;11.566;2022-08-18T01:59:23;9.50;;;7.60;;
22144;SDS011;11238;48.730;11.566;2022-08-18T02:01:49;7.32;;;6.60;;
22144;SDS011;11238;48.730;11.566;2022-08-18T02:04:17;10.95;;;6.90;;
22144;SDS011;11238;48.730;11.566;2022-08-18T02:06:43;8.68;;;6.97;;
22144;SDS011;11238;48.730;11.566;2022-08-18T02:09:09;9.35;;;7.97;;
22144;SDS011;11238;48.730;11.566;2022-08-18T02:11:35;9.40;;;7.43;;
22144;SDS011;11238;48.730;11.566;2022-08-18T02:14:00;9.50;;;7.30;;
22144;SDS011;11238;48.730;11.566;2022-08-18T02:16:26;11.10;;;7.55;;
22144;SDS011;11238;48.730;11.566;2022-08-18T02:18:52;10.63;;;7.28;;
22144;SDS011;11238;48.730;11.566;2022-08-18T02:21:18;8.35;;;7.25;;
22144;SDS011;11238;48.730;11.566;2022-08-18T02:23:45;9.63;;;7.90;;
22144;SDS011;11238;48.730;11.566;2022-08-18T02:26:13;9.23;;;8.32;;
22144;SDS011;11238;48.730;11.566;2022-08-18T02:28:41;9.27;;;7.72;;
22144;SDS011;11238;48.730;11.566;2022-08-18T02:31:08;9.23;;;7.95;;
22144;SDS011;11238;48.730;11.566;2022-08-18T02:33:36;8.70;;;7.78;;
22144;SDS011;11238;48.730;11.566;2022-08-18T02:36:02;9.15;;;8.23;;
22144;SDS011;11238;48.730;11.566;2022-08-18T02:38:31;9.98;;;8.30;;
22144;SDS011;11238;48.730;11.566;2022-08-18T02:40:59;10.15;;;8.70;;
22144;SDS011;11238;48.730;11.566;2022-08-18T02:43:28;10.52;;;8.63;;
22144;SDS011;11238;48.730;11.566;2022-08-18T02:45:54;9.52;;;7.35;;
22144;SDS011;11238;48.730;11.566;2022-08-18T02:48:20;11.02;;;8.15;;
22144;SDS011;11238;48.730;11.566;2022-08-18T02:51:07;9.10;;;7.47;;
22144;SDS011;11238;48.730;11.566;2022-08-18T02:53:37;11.20;;;7.55;;
22144;SDS011;11238;48.730;11.566;2022-08-18T02:56:09;8.32;;;7.43;;
22144;SDS011;11238;48.730;11.566;2022-08-18T02:58:49;11.52;;;8.05;;
22144;SDS011;11238;48.730;11.566;2022-08-18T03:01:20;9.68;;;7.30;;
22144;SDS011;11238;48.730;11.566;2022-08-18T03:03:48;9.27;;;8.35;;
22144;SDS011;11238;48.730;11.566;2022-08-18T03:06:14;10.52;;;7.82;;
22144;SDS011;11238;48.730;11.566;2022-08-18T03:08:41;8.93;;;8.02;;
22144;SDS011;11238;48.730;11.566;2022-08-18T03:11:17;11.23;;;8.52;;
22144;SDS011;11238;48.730;11.566;2022-08-18T03:13:45;12.55;;;9.32;;
22144;SDS011;11238;48.730;11.566;2022-08-18T03:16:12;15.10;;;9.43;;
22144;SDS011;11238;48.730;11.566;2022-08-18T03:18:40;11.02;;;9.50;;
22144;SDS011;11238;48.730;11.566;2022-08-18T03:21:10;9.57;;;8.43;;
22144;SDS011;11238;48.730;11.566;2022-08-18T03:23:38;9.52;;;8.52;;
22144;SDS011;11238;48.730;11.566;2022-08-18T03:26:05;11.77;;;10.57;;
22144;SDS011;11238;48.730;11.566;2022-08-18T03:28:40;12.32;;;9.63;;
22144;SDS011;11238;48.730;11.566;2022-08-18T03:31:08;11.27;;;9.55;;
22144;SDS011;11238;48.730;11.566;2022-08-18T03:33:34;10.40;;;9.30;;
22144;SDS011;11238;48.730;11.566;2022-08-18T03:36:04;10.95;;;9.35;;
22144;SDS011;11238;48.730;11.566;2022-08-18T03:38:34;12.75;;;8.95;;
22144;SDS011;11238;48.730;11.566;2022-08-18T03:41:00;11.27;;;8.48;;
22144;SDS011;11238;48.730;11.566;2022-08-18T03:43:26;9.55;;;8.55;;
22144;SDS011;11238;48.730;11.566;2022-08-18T03:45:53;10.52;;;9.20;;
22144;SDS011;11238;48.730;11.566;2022-08-18T03:48:19;14.07;;;10.15;;
22144;SDS011;11238;48.730;11.566;2022-08-18T03:50:45;11.15;;;9.10;;
22144;SDS011;11238;48.730;11.566;2022-08-18T03:53:13;11.52;;;9.10;;
22144;SDS011;11238;48.730;11.566;2022-08-18T03:55:39;9.90;;;8.70;;
22144;SDS011;11238;48.730;11.566;2022-08-18T03:58:05;11.57;;;10.32;;
22144;SDS011;11238;48.730;11.566;2022-08-18T04:00:32;12.10;;;8.68;;
22144;SDS011;11238;48.730;11.566;2022-08-18T04:03:02;13.77;;;9.38;;
22144;SDS011;11238;48.730;11.566;2022-08-18T04:05:28;11.82;;;10.13;;
22144;SDS011;11238;48.730;11.566;2022-08-18T04:07:54;10.95;;;9.77;;
22144;SDS011;11238;48.730;11.566;2022-08-18T04:10:21;13.80;;;9.70;;
22144;SDS011;11238;48.730;11.566;2022-08-18T04:12:48;11.98;;;9.55;;
22144;SDS011;11238;48.730;11.566;2022-08-18T04:15:15;13.00;;;10.13;;
22144;SDS011;11238;48.730;11.566;2022-08-18T04:17:41;13.27;;;10.80;;
22144;SDS011;11238;48.730;11.566;2022-08-18T04:20:10;15.30;;;10.40;;
22144;SDS011;11238;48.730;11.566;2022-08-18T04:22:38;13.52;;;10.15;;
22144;SDS011;11238;48.730;11.566;2022-08-18T04:25:05;13.30;;;8.75;;
22144;SDS011;11238;48.730;11.566;2022-08-18T04:27:34;10.95;;;9.00;;
22144;SDS011;11238;48.730;11.566;2022-08-18T04:30:01;11.82;;;10.35;;
22144;SDS011;11238;48.730;11.566;2022-08-18T04:32:28;12.05;;;9.88;;
22144;SDS011;11238;48.730;11.566;2022-08-18T04:34:55;11.77;;;10.30;;
22144;SDS011;11238;48.730;11.566;2022-08-18T04:37:21;15.13;;;10.18;;
22144;SDS011;11238;48.730;11.566;2022-08-18T04:39:47;12.57;;;10.20;;
22144;SDS011;11238;48.730;11.566;2022-08-18T04:42:12;16.73;;;11.45;;
22144;SDS011;11238;48.730;11.566;2022-08-18T04:44:38;13.10;;;11.40;;
22144;SDS011;11238;48.730;11.566;2022-08-18T04:47:04;9.95;;;8.95;;
22144;SDS011;11238;48.730;11.566;2022-08-18T04:49:34;10.50;;;9.35;;
22144;SDS011;11238;48.730;11.566;2022-08-18T04:52:01;11.50;;;9.52;;
22144;SDS011;11238;48.730;11.566;2022-08-18T04:54:47;17.83;;;11.20;;
22144;SDS011;11238;48.730;11.566;2022-08-18T04:57:15;11.60;;;9.75;;
22144;SDS011;11238;48.730;11.566;2022-08-18T04:59:42;16.27;;;12.63;;
22144;SDS011;11238;48.730;11.566;2022-08-18T05:02:10;17.85;;;12.48;;
22144;SDS011;11238;48.730;11.566;2022-08-18T05:04:37;12.88;;;11.38;;
22144;SDS011;11238;48.730;11.566;2022-08-18T05:07:06;17.92;;;11.98;;
22144;SDS011;11238;48.730;11.566;2022-08-18T05:09:33;14.52;;;12.10;;
22144;SDS011;11238;48.730;11.566;2022-08-18T05:12:03;17.63;;;11.95;;
22144;SDS011;11238;48.730;11.566;2022-08-18T05:14:30;16.63;;;12.75;;
22144;SDS011;11238;48.730;11.566;2022-08-18T05:16:58;16.10;;;11.30;;
22144;SDS011;11238;48.730;11.566;2022-08-18T05:19:28;10.48;;;9.27;;
22144;SDS011;11238;48.730;11.566;2022-08-18T05:21:55;14.20;;;12.80;;
22144;SDS011;11238;48.730;11.566;2022-08-18T05:24:22;13.32;;;11.70;;
22144;SDS011;11238;48.730;11.566;2022-08-18T05:26:50;12.30;;;10.73;;
22144;SDS011;11238;48.730;11.566;2022-08-18T05:29:17;13.13;;;11.65;;
22144;SDS011;11238;48.730;11.566;2022-08-18T05:31:46;10.07;;;8.18;;
22144;SDS011;11238;48.730;11.566;2022-08-18T05:34:14;9.07;;;8.05;;
22144;SDS011;11238;48.730;11.566;2022-08-18T05:44:29;12.75;;;10.93;;
22144;SDS011;11238;48.730;11.566;2022-08-18T05:47:23;10.48;;;9.18;;
22144;SDS011;11238;48.730;11.566;2022-08-18T05:49:50;9.38;;;8.35;;
22144;SDS011;11238;48.730;11.566;2022-08-18T05:52:18;13.15;;;11.73;;
22144;SDS011;11238;48.730;11.566;2022-08-18T05:54:54;13.50;;;9.52;;
22144;SDS011;11238;48.730;11.566;2022-08-18T05:57:43;13.15;;;8.50;;
22144;SDS011;11238;48.730;11.566;2022-08-18T06:00:19;11.25;;;9.80;;
22144;SDS011;11238;48.730;11.566;2022-08-18T06:02:50;13.93;;;10.98;;
22144;SDS011;11238;48.730;11.566;2022-08-18T06:05:23;14.15;;;12.65;;
22144;SDS011;11238;48.730;11.566;2022-08-18T06:07:58;13.82;;;11.75;;
22144;SDS011;11238;48.730;11.566;2022-08-18T06:10:27;15.80;;;14.23;;
22144;SDS011;11238;48.730;11.566;2022-08-18T06:12:55;14.13;;;12.05;;
22144;SDS011;11238;48.730;11.566;2022-08-18T06:23:53;18.25;;;12.90;;
22144;SDS011;11238;48.730;11.566;2022-08-18T06:29:36;15.15;;;10.15;;
22144;SDS011;11238;48.730;11.566;2022-08-18T06:35:36;11.18;;;9.95;;
22144;SDS011;11238;48.730;11.566;2022-08-18T06:38:26;11.60;;;9.80;;
22144;SDS011;11238;48.730;11.566;2022-08-18T06:46:35;17.70;;;14.57;;
22144;SDS011;11238;48.730;11.566;2022-08-18T06:51:55;12.13;;;10.82;;
22144;SDS011;11238;48.730;11.566;2022-08-18T06:54:26;16.73;;;14.90;;
22144;SDS011;11238;48.730;11.566;2022-08-18T06:56:54;11.50;;;10.30;;
22144;SDS011;11238;48.730;11.566;2022-08-18T06:59:24;15.23;;;10.93;;
22144;SDS011;11238;48.730;11.566;2022-08-18T07:02:21;15.23;;;11.52;;
22144;SDS011;11238;48.730;11.566;2022-08-18T07:05:06;11.07;;;9.85;;
22144;SDS011;11238;48.730;11.566;2022-08-18T07:07:39;10.85;;;9.80;;
22144;SDS011;11238;48.730;11.566;2022-08-18T07:10:13;13.98;;;10.50;;
22144;SDS011;11238;48.730;11.566;2022-08-18T07:12:51;14.57;;;12.93;;
22144;SDS011;11238;48.730;11.566;2022-08-18T07:15:31;13.88;;;10.93;;
22144;SDS011;11238;48.730;11.566;2022-08-18T07:18:04;12.57;;;10.73;;
22144;SDS011;11238;48.730;11.566;2022-08-18T07:20:45;16.42;;;13.07;;
22144;SDS011;11238;48.730;11.566;2022-08-18T07:23:20;14.02;;;11.48;;
22144;SDS011;11238;48.730;11.566;2022-08-18T07:25:50;11.65;;;10.45;;
22144;SDS011;11238;48.730;11.566;2022-08-18T07:28:29;16.73;;;14.73;;
22144;SDS011;11238;48.730;11.566;2022-08-18T07:33:50;14.43;;;11.57;;
22144;SDS011;11238;48.730;11.566;2022-08-18T07:36:21;12.25;;;10.50;;
22144;SDS011;11238;48.730;11.566;2022-08-18T07:39:04;19.23;;;13.75;;
22144;SDS011;11238;48.730;11.566;2022-08-18T07:41:39;13.35;;;11.77;;
22144;SDS011;11238;48.730;11.566;2022-08-18T07:44:14;15.35;;;13.55;;
22144;SDS011;11238;48.730;11.566;2022-08-18T07:46:52;17.77;;;14.65;;
22144;SDS011;11238;48.730;11.566;2022-08-18T07:49:25;15.93;;;13.50;;
22144;SDS011;11238;48.730;11.566;2022-08-18T07:57:13;16.08;;;13.98;;
22144;SDS011;11238;48.730;11.566;2022-08-18T08:02:26;10.10;;;9.15;;
22144;SDS011;11238;48.730;11.566;2022-08-18T08:05:15;16.33;;;11.77;;
22144;SDS011;11238;48.730;11.566;2022-08-18T08:11:20;18.63;;;15.27;;
22144;SDS011;11238;48.730;11.566;2022-08-18T08:18:50;13.27;;;11.88;;
22144;SDS011;11238;48.730;11.566;2022-08-18T08:21:18;14.07;;;11.75;;
22144;SDS011;11238;48.730;11.566;2022-08-18T08:23:54;16.65;;;12.60;;
22144;SDS011;11238;48.730;11.566;2022-08-18T08:27:00;11.35;;;9.85;;
22144;SDS011;11238;48.730;11.566;2022-08-18T08:29:58;20.20;;;12.25;;
22144;SDS011;11238;48.730;11.566;2022-08-18T08:32:34;19.42;;;13.57;;
22144;SDS011;11238;48.730;11.566;2022-08-18T08:35:12;15.27;;;12.75;;
22144;SDS011;11238;48.730;11.566;2022-08-18T08:37:57;14.52;;;12.52;;
22144;SDS011;11238;48.730;11.566;2022-08-18T08:40:27;15.48;;;13.57;;
22144;SDS011;11238;48.730;11.566;2022-08-18T08:43:02;17.17;;;10.90;;
22144;SDS011;11238;48.730;11.566;2022-08-18T08:45:33;14.57;;;12.77;;
22144;SDS011;11238;48.730;11.566;2022-08-18T08:48:24;12.45;;;10.27;;
22144;SDS011;11238;48.730;11.566;2022-08-18T08:50:58;15.23;;;12.07;;
22144;SDS011;11238;48.730;11.566;2022-08-18T08:53:28;15.60;;;14.00;;
22144;SDS011;11238;48.730;11.566;2022-08-18T08:56:00;18.25;;;15.38;;
22144;SDS011;11238;48.730;11.566;2022-08-18T08:58:39;15.73;;;14.00;;
22144;SDS011;11238;48.730;11.566;2022-08-18T09:01:18;12.70;;;11.30;;
22144;SDS011;11238;48.730;11.566;2022-08-18T09:04:00;13.48;;;10.63;;
22144;SDS011;11238;48.730;11.566;2022-08-18T09:06:47;18.35;;;15.10;;
22144;SDS011;11238;48.730;11.566;2022-08-18T09:14:49;11.65;;;10.18;;
22144;SDS011;11238;48.730;11.566;2022-08-18T09:28:18;15.38;;;12.73;;
22144;SDS011;11238;48.730;11.566;2022-08-18T09:42:02;13.38;;;11.95;;
22144;SDS011;11238;48.730;11.566;2022-08-18T09:49:53;15.93;;;14.30;;
22144;SDS011;11238;48.730;11.566;2022-08-18T09:54:50;10.68;;;9.57;;
22144;SDS011;11238;48.730;11.566;2022-08-18T09:57:27;15.05;;;12.32;;
22144;SDS011;11238;48.730;11.566;2022-08-18T10:00:17;13.38;;;12.10;;
22144;SDS011;11238;48.730;11.566;2022-08-18T10:08:22;15.73;;;12.38;;
22144;SDS011;11238;48.730;11.566;2022-08-18T10:10:43;13.40;;;10.75;;
22144;SDS011;11238;48.730;11.566;2022-08-18T10:16:02;13.82;;;10.63;;
22144;SDS011;11238;48.730;11.566;2022-08-18T10:19:09;12.02;;;10.70;;
22144;SDS011;11238;48.730;11.566;2022-08-18T10:24:43;15.10;;;11.13;;
22144;SDS011;11238;48.730;11.566;2022-08-18T10:33:01;9.70;;;8.65;;
22144;SDS011;11238;48.730;11.566;2022-08-18T10:38:01;10.13;;;8.90;;
22144;SDS011;11238;48.730;11.566;2022-08-18T10:40:34;9.07;;;8.18;;
22144;SDS011;11238;48.730;11.566;2022-08-18T10:43:13;10.07;;;8.55;;
22144;SDS011;11238;48.730;11.566;2022-08-18T10:45:58;8.43;;;7.63;;
22144;SDS011;11238;48.730;11.566;2022-08-18T10:48:28;11.68;;;7.97;;
22144;SDS011;11238;48.730;11.566;2022-08-18T10:53:37;11.35;;;8.50;;
22144;SDS011;11238;48.730;11.566;2022-08-18T10:59:10;13.88;;;7.50;;
22144;SDS011;11238;48.730;11.566;2022-08-18T11:07:11;10.13;;;7.47;;
22144;SDS011;11238;48.730;11.566;2022-08-18T11:09:40;8.52;;;7.68;;
22144;SDS011;11238;48.730;11.566;2022-08-18T11:12:07;9.88;;;8.40;;
22144;SDS011;11238;48.730;11.566;2022-08-18T11:20:14;8.25;;;7.55;;
22144;SDS011;11238;48.730;11.566;2022-08-18T11:22:49;10.38;;;7.80;;
22144;SDS011;11238;48.730;11.566;2022-08-18T11:25:25;9.88;;;6.60;;
22144;SDS011;11238;48.730;11.566;2022-08-18T11:27:52;7.93;;;6.80;;
22144;SDS011;11238;48.730;11.566;2022-08-18T11:30:18;7.43;;;6.25;;
22144;SDS011;11238;48.730;11.566;2022-08-18T11:32:44;8.88;;;7.88;;
22144;SDS011;11238;48.730;11.566;2022-08-18T11:35:13;8.82;;;7.60;;
22144;SDS011;11238;48.730;11.566;2022-08-18T11:40:40;8.35;;;6.72;;
22144;SDS011;11238;48.730;11.566;2022-08-18T11:43:15;9.45;;;6.85;;
22144;SDS011;11238;48.730;11.566;2022-08-18T11:50:46;7.00;;;5.18;;
22144;SDS011;11238;48.730;11.566;2022-08-18T11:53:23;6.00;;;5.35;;
22144;SDS011;11238;48.730;11.566;2022-08-18T11:56:10;7.15;;;6.13;;
22144;SDS011;11238;48.730;11.566;2022-08-18T12:06:39;6.97;;;6.10;;
22144;SDS011;11238;48.730;11.566;2022-08-18T12:09:15;6.80;;;5.85;;
22144;SDS011;11238;48.730;11.566;2022-08-18T12:11:51;9.23;;;5.40;;
22144;SDS011;11238;48.730;11.566;2022-08-18T12:14:25;8.13;;;6.38;;
22144;SDS011;11238;48.730;11.566;2022-08-18T12:16:53;7.95;;;5.47;;
22144;SDS011;11238;48.730;11.566;2022-08-18T12:19:19;5.43;;;4.93;;
22144;SDS011;11238;48.730;11.566;2022-08-18T12:21:51;6.47;;;5.30;;
22144;SDS011;11238;48.730;11.566;2022-08-18T12:24:23;9.13;;;5.60;;
22144;SDS011;11238;48.730;11.566;2022-08-18T12:26:51;9.50;;;6.32;;
22144;SDS011;11238;48.730;11.566;2022-08-18T12:29:18;7.57;;;5.20;;
22144;SDS011;11238;48.730;11.566;2022-08-18T12:31:45;6.63;;;5.85;;
22144;SDS011;11238;48.730;11.566;2022-08-18T12:34:18;8.63;;;6.13;;
22144;SDS011;11238;48.730;11.566;2022-08-18T12:36:48;10.27;;;5.28;;
22144;SDS011;11238;48.730;11.566;2022-08-18T12:39:15;7.95;;;5.30;;
22144;SDS011;11238;48.730;11.566;2022-08-18T12:41:41;6.10;;;5.40;;
22144;SDS011;11238;48.730;11.566;2022-08-18T12:44:07;7.68;;;5.40;;
22144;SDS011;11238;48.730;11.566;2022-08-18T12:46:33;6.75;;;5.05;;
22144;SDS011;11238;48.730;11.566;2022-08-18T12:48:59;9.32;;;6.18;;
22144;SDS011;11238;48.730;11.566;2022-08-18T12:51:26;6.72;;;6.05;;
22144;SDS011;11238;48.730;11.566;2022-08-18T12:53:52;8.10;;;5.00;;
22144;SDS011;11238;48.730;11.566;2022-08-18T12:58:54;6.85;;;5.57;;
22144;SDS011;11238;48.730;11.566;2022-08-18T13:01:22;6.60;;;5.97;;
22144;SDS011;11238;48.730;11.566;2022-08-18T13:03:51;7.90;;;5.30;;
22144;SDS011;11238;48.730;11.566;2022-08-18T13:06:20;8.77;;;5.18;;
22144;SDS011;11238;48.730;11.566;2022-08-18T13:08:47;5.70;;;4.72;;
22144;SDS011;11238;48.730;11.566;2022-08-18T13:11:14;7.05;;;5.15;;
22144;SDS011;11238;48.730;11.566;2022-08-18T13:13:42;6.10;;;4.70;;
22144;SDS011;11238;48.730;11.566;2022-08-18T13:16:08;6.40;;;5.80;;
22144;SDS011;11238;48.730;11.566;2022-08-18T13:18:35;6.63;;;5.15;;
22144;SDS011;11238;48.730;11.566;2022-08-18T13:21:02;6.07;;;5.05;;
22144;SDS011;11238;48.730;11.566;2022-08-18T13:23:29;7.40;;;5.00;;
22144;SDS011;11238;48.730;11.566;2022-08-18T13:25:56;5.53;;;4.80;;
22144;SDS011;11238;48.730;11.566;2022-08-18T13:28:23;4.38;;;3.97;;
22144;SDS011;11238;48.730;11.566;2022-08-18T13:30:49;4.55;;;4.15;;
22144;SDS011;11238;48.730;11.566;2022-08-18T13:33:15;10.20;;;4.80;;
22144;SDS011;11238;48.730;11.566;2022-08-18T13:35:43;5.70;;;4.28;;
22144;SDS011;11238;48.730;11.566;2022-08-18T13:38:10;4.80;;;4.40;;
22144;SDS011;11238;48.730;11.566;2022-08-18T13:40:37;6.13;;;4.30;;
22144;SDS011;11238;48.730;11.566;2022-08-18T13:43:03;6.47;;;4.38;;
22144;SDS011;11238;48.730;11.566;2022-08-18T13:45:29;4.95;;;4.25;;
22144;SDS011;11238;48.730;11.566;2022-08-18T13:47:55;6.30;;;4.22;;
22144;SDS011;11238;48.730;11.566;2022-08-18T13:50:21;7.05;;;3.80;;
22144;SDS011;11238;48.730;11.566;2022-08-18T13:52:47;5.72;;;4.40;;
22144;SDS011;11238;48.730;11.566;2022-08-18T13:55:15;7.38;;;4.25;;
22144;SDS011;11238;48.730;11.566;2022-08-18T13:57:42;5.05;;;4.35;;
22144;SDS011;11238;48.730;11.566;2022-08-18T14:00:17;7.50;;;4.72;;
22144;SDS011;11238;48.730;11.566;2022-08-18T14:02:46;6.78;;;4.80;;
22144;SDS011;11238;48.730;11.566;2022-08-18T14:05:15;5.78;;;4.70;;
22144;SDS011;11238;48.730;11.566;2022-08-18T14:07:41;5.03;;;4.50;;
22144;SDS011;11238;48.730;11.566;2022-08-18T14:10:07;4.95;;;4.30;;
22144;SDS011;11238;48.730;11.566;2022-08-18T14:12:34;5.53;;;4.57;;
22144;SDS011;11238;48.730;11.566;2022-08-18T14:15:02;5.10;;;4.50;;
22144;SDS011;11238;48.730;11.566;2022-08-18T14:17:31;7.32;;;4.63;;
22144;SDS011;11238;48.730;11.566;2022-08-18T14:19:57;4.93;;;4.43;;
22144;SDS011;11238;48.730;11.566;2022-08-18T14:22:43;6.05;;;4.40;;
22144;SDS011;11238;48.730;11.566;2022-08-18T14:25:28;7.18;;;4.55;;
22144;SDS011;11238;48.730;11.566;2022-08-18T14:28:52;5.32;;;4.68;;
22144;SDS011;11238;48.730;11.566;2022-08-18T14:31:19;7.50;;;4.93;;
22144;SDS011;11238;48.730;11.566;2022-08-18T14:33:45;13.18;;;4.50;;
22144;SDS011;11238;48.730;11.566;2022-08-18T14:36:11;7.55;;;4.60;;
22144;SDS011;11238;48.730;11.566;2022-08-18T14:38:38;6.53;;;4.90;;
22144;SDS011;11238;48.730;11.566;2022-08-18T14:41:05;9.18;;;5.10;;
22144;SDS011;11238;48.730;11.566;2022-08-18T14:43:33;5.40;;;4.90;;
22144;SDS011;11238;48.730;11.566;2022-08-18T14:46:00;5.78;;;5.28;;
22144;SDS011;11238;48.730;11.566;2022-08-18T14:48:27;8.82;;;5.50;;
22144;SDS011;11238;48.730;11.566;2022-08-18T14:50:54;8.15;;;5.45;;
22144;SDS011;11238;48.730;11.566;2022-08-18T14:53:24;6.18;;;5.60;;
22144;SDS011;11238;48.730;11.566;2022-08-18T14:55:51;5.82;;;5.28;;
22144;SDS011;11238;48.730;11.566;2022-08-18T14:58:19;6.32;;;5.43;;
22144;SDS011;11238;48.730;11.566;2022-08-18T15:00:47;7.18;;;5.45;;
22144;SDS011;11238;48.730;11.566;2022-08-18T15:03:13;6.90;;;5.60;;
22144;SDS011;11238;48.730;11.566;2022-08-18T15:05:39;6.28;;;5.68;;
22144;SDS011;11238;48.730;11.566;2022-08-18T15:08:05;8.57;;;5.45;;
22144;SDS011;11238;48.730;11.566;2022-08-18T15:10:31;6.55;;;5.88;;
22144;SDS011;11238;48.730;11.566;2022-08-18T15:12:57;5.97;;;5.45;;
22144;SDS011;11238;48.730;11.566;2022-08-18T15:15:24;10.10;;;5.90;;
22144;SDS011;11238;48.730;11.566;2022-08-18T15:17:51;8.10;;;5.70;;
22144;SDS011;11238;48.730;11.566;2022-08-18T15:20:18;6.50;;;5.68;;
22144;SDS011;11238;48.730;11.566;2022-08-18T15:22:46;5.40;;;4.90;;
22144;SDS011;11238;48.730;11.566;2022-08-18T15:25:30;7.22;;;5.40;;
22144;SDS011;11238;48.730;11.566;2022-08-18T15:28:19;5.88;;;5.10;;
22144;SDS011;11238;48.730;11.566;2022-08-18T15:30:47;6.47;;;4.75;;
22144;SDS011;11238;48.730;11.566;2022-08-18T15:33:15;7.57;;;5.28;;
22144;SDS011;11238;48.730;11.566;2022-08-18T15:35:41;7.10;;;5.38;;
22144;SDS011;11238;48.730;11.566;2022-08-18T15:38:08;7.78;;;5.15;;
22144;SDS011;11238;48.730;11.566;2022-08-18T15:40:37;6.30;;;5.57;;
22144;SDS011;11238;48.730;11.566;2022-08-18T15:43:11;5.38;;;4.88;;
22144;SDS011;11238;48.730;11.566;2022-08-18T15:45:40;7.60;;;5.55;;
22144;SDS011;11238;48.730;11.566;2022-08-18T15:48:08;6.53;;;5.78;;
22144;SDS011;11238;48.730;11.566;2022-08-18T15:50:35;6.43;;;5.40;;
22144;SDS011;11238;48.730;11.566;2022-08-18T15:53:02;5.95;;;5.13;;
22144;SDS011;11238;48.730;11.566;2022-08-18T15:55:31;7.03;;;5.07;;
22144;SDS011;11238;48.730;11.566;2022-08-18T15:57:58;6.63;;;5.07;;
22144;SDS011;11238;48.730;11.566;2022-08-18T16:00:27;7.00;;;5.32;;
22144;SDS011;11238;48.730;11.566;2022-08-18T16:02:55;5.57;;;4.88;;
22144;SDS011;11238;48.730;11.566;2022-08-18T16:05:25;5.93;;;5.40;;
22144;SDS011;11238;48.730;11.566;2022-08-18T16:07:57;5.78;;;5.00;;
22144;SDS011;11238;48.730;11.566;2022-08-18T16:10:24;6.97;;;4.93;;
22144;SDS011;11238;48.730;11.566;2022-08-18T16:12:52;6.30;;;5.18;;
22144;SDS011;11238;48.730;11.566;2022-08-18T16:15:19;6.38;;;4.80;;
22144;SDS011;11238;48.730;11.566;2022-08-18T16:17:47;5.10;;;4.60;;
22144;SDS011;11238;48.730;11.566;2022-08-18T16:20:13;7.53;;;5.07;;
22144;SDS011;11238;48.730;11.566;2022-08-18T16:22:40;5.78;;;5.10;;
22144;SDS011;11238;48.730;11.566;2022-08-18T16:25:06;6.85;;;5.18;;
22144;SDS011;11238;48.730;11.566;2022-08-18T16:27:33;7.43;;;5.90;;
22144;SDS011;11238;48.730;11.566;2022-08-18T16:30:00;6.75;;;5.38;;
22144;SDS011;11238;48.730;11.566;2022-08-18T16:32:34;7.53;;;5.70;;
22144;SDS011;11238;48.730;11.566;2022-08-18T16:34:59;8.45;;;5.38;;
22144;SDS011;11238;48.730;11.566;2022-08-18T16:37:26;9.15;;;5.72;;
22144;SDS011;11238;48.730;11.566;2022-08-18T16:39:52;7.25;;;5.97;;
22144;SDS011;11238;48.730;11.566;2022-08-18T16:42:18;7.15;;;5.53;;
22144;SDS011;11238;48.730;11.566;2022-08-18T16:44:45;6.28;;;5.68;;
22144;SDS011;11238;48.730;11.566;2022-08-18T16:47:14;8.88;;;5.75;;
22144;SDS011;11238;48.730;11.566;2022-08-18T16:49:46;10.60;;;5.40;;
22144;SDS011;11238;48.730;11.566;2022-08-18T16:52:18;7.43;;;5.30;;
22144;SDS011;11238;48.730;11.566;2022-08-18T16:54:45;11.45;;;5.55;;
22144;SDS011;11238;48.730;11.566;2022-08-18T16:57:11;7.72;;;5.38;;
22144;SDS011;11238;48.730;11.566;2022-08-18T16:59:41;7.55;;;5.20;;
22144;SDS011;11238;48.730;11.566;2022-08-18T17:02:25;6.15;;;5.28;;
22144;SDS011;11238;48.730;11.566;2022-08-18T17:05:09;7.03;;;5.70;;
22144;SDS011;11238;48.730;11.566;2022-08-18T17:07:36;8.57;;;5.82;;